Winston, Georgia
Current Conditions -  °F | °C
As of 1:15 PM on Thursday 27 Nov 2014 (Local Time) from KPUJ Reporting Station
Overcast Overcast  
Wind Chill: 39°   Ceiling: 4200
Heat Index: 45°   Visibility: 10mi
Dew Point: 32°   Wind: 12mph
Humidity: 61%   Direction: 320°NW
Pressure: 30.29"   Gusts: 18mph
Location:  33.72°N, 84.82°W
Report Text: KPUJ 271815Z AUTO 32010G16KT 10SM OVC042 07/00 A3029 RMK AO2
Loading
Personal Weather Stations






























Interactive Weather Map New forecast layout! Learn more

10-Day Weather Forecast

Advertisements
Track Severe Weather on mobile